Time;durP1;ratioP1;P1;durP2;ratioP2;P2;SDS_P1;SDS_P2;PMS_P1;PMS_P2;Temp;Humidity;BMP_temperature;BMP_pressure;BME280_temperature;BME280_humidity;BME280_pressure;Samples;Min_cycle;Max_cycle;Signal;HPM_P1;HPM_P2
2023/10/14 00:00:48;;;;;;;10.10;5.50;;;21.80;99.90;;;;;;5075267;28;20710;-74
2023/10/14 00:03:33;;;;;;;9.37;5.53;;;21.80;99.90;;;;;;5092334;28;20608;-74
2023/10/14 00:06:06;;;;;;;8.53;4.60;;;21.80;99.90;;;;;;5055245;28;20587;-74
2023/10/14 00:08:35;;;;;;;9.00;4.77;;;21.70;99.90;;;;;;5055368;28;20586;-73
2023/10/14 00:11:07;;;;;;;10.43;4.47;;;21.70;99.90;;;;;;5073134;28;20590;-73
2023/10/14 00:13:42;;;;;;;8.63;4.20;;;21.70;99.90;;;;;;5054842;28;20689;-73
2023/10/14 00:16:13;;;;;;;6.53;3.80;;;21.70;99.90;;;;;;5076813;28;21421;-72
2023/10/14 00:18:47;;;;;;;9.10;4.37;;;21.70;99.90;;;;;;5073046;28;20631;-73
2023/10/14 00:21:13;;;;;;;6.83;4.30;;;21.70;99.90;;;;;;5073001;28;20687;-73
2023/10/14 00:23:39;;;;;;;6.93;4.97;;;21.80;99.90;;;;;;5072888;28;21031;-73
2023/10/14 00:26:13;;;;;;;10.07;4.57;;;21.70;99.90;;;;;;5054719;28;20574;-73
2023/10/14 00:28:41;;;;;;;7.47;4.77;;;21.80;99.90;;;;;;5085468;28;20182;-72
2023/10/14 00:31:10;;;;;;;9.67;5.10;;;21.80;99.90;;;;;;5075034;28;20577;-72
2023/10/14 00:33:37;;;;;;;8.57;4.50;;;21.90;99.90;;;;;;5057500;28;20629;-72
2023/10/14 00:36:03;;;;;;;6.43;3.80;;;21.90;99.90;;;;;;5074531;28;20584;-72
2023/10/14 00:38:34;;;;;;;7.33;3.47;;;21.90;99.90;;;;;;5092906;28;20966;-72
2023/10/14 00:41:00;;;;;;;8.50;4.57;;;21.90;99.90;;;;;;5093038;28;20577;-72
2023/10/14 00:43:26;;;;;;;6.20;3.70;;;22.00;99.90;;;;;;5074689;28;21162;-72
2023/10/14 00:45:52;;;;;;;5.17;3.37;;;22.00;99.90;;;;;;5057938;28;20565;-73
2023/10/14 00:48:27;;;;;;;5.00;3.70;;;22.00;99.90;;;;;;5074479;28;20188;-72
2023/10/14 00:50:59;;;;;;;5.67;3.70;;;22.10;99.90;;;;;;5074538;28;20955;-72
2023/10/14 00:53:28;;;;;;;6.63;3.70;;;22.00;99.90;;;;;;5073842;28;21197;-72
2023/10/14 00:55:57;;;;;;;7.13;3.40;;;21.90;99.90;;;;;;5092410;28;20562;-72
2023/10/14 00:58:23;;;;;;;10.03;4.40;;;21.80;99.90;;;;;;5074338;28;20581;-72
2023/10/14 01:00:58;;;;;;;5.70;3.30;;;21.70;99.90;;;;;;5092489;28;20676;-72
2023/10/14 01:03:35;;;;;;;7.27;3.47;;;21.70;99.90;;;;;;5071012;28;20613;-74
2023/10/14 01:06:23;;;;;;;6.10;3.60;;;21.60;99.90;;;;;;5092250;28;20581;-73
2023/10/14 01:08:53;;;;;;;9.20;3.40;;;21.50;99.90;;;;;;5073564;28;20602;-73
2023/10/14 01:11:20;;;;;;;6.70;3.33;;;21.40;99.90;;;;;;5074498;28;21026;-73
2023/10/14 01:13:46;;;;;;;8.53;2.97;;;21.30;99.90;;;;;;5073903;28;20674;-73
2023/10/14 01:16:15;;;;;;;4.40;3.33;;;21.30;99.90;;;;;;5073939;28;20577;-73
2023/10/14 01:18:41;;;;;;;6.13;2.90;;;21.20;99.90;;;;;;5091672;28;21205;-73
2023/10/14 01:21:07;;;;;;;9.67;3.50;;;21.20;99.90;;;;;;5073594;28;21128;-72
2023/10/14 01:23:37;;;;;;;8.00;4.30;;;21.20;99.90;;;;;;5054550;28;20826;-72
2023/10/14 01:26:09;;;;;;;12.60;4.13;;;21.10;99.90;;;;;;5036967;28;20587;-72
2023/10/14 01:28:42;;;;;;;10.23;3.90;;;21.10;99.90;;;;;;5036996;28;20716;-72
2023/10/14 01:31:38;;;;;;;8.73;3.77;;;21.10;99.90;;;;;;5036808;28;20583;-72
2023/10/14 01:34:07;;;;;;;7.10;2.80;;;21.10;99.90;;;;;;5071329;28;20675;-72
2023/10/14 01:36:38;;;;;;;5.23;2.63;;;21.10;99.90;;;;;;5036838;28;20921;-73
2023/10/14 01:39:09;;;;;;;7.43;2.47;;;21.10;99.90;;;;;;5060346;28;20695;-73
2023/10/14 01:41:35;;;;;;;5.13;2.27;;;21.10;99.90;;;;;;5054132;28;20594;-72
2023/10/14 01:44:05;;;;;;;4.50;2.47;;;21.00;99.90;;;;;;5036833;28;21202;-72
2023/10/14 01:46:34;;;;;;;3.57;2.30;;;21.00;99.90;;;;;;5071014;28;20590;-72
2023/10/14 01:49:10;;;;;;;4.27;1.60;;;20.80;99.90;;;;;;5036760;28;21140;-72
2023/10/14 01:51:37;;;;;;;7.53;2.70;;;20.70;99.90;;;;;;5036757;28;20590;-73
2023/10/14 01:54:03;;;;;;;4.30;1.70;;;20.60;99.90;;;;;;5036581;28;21055;-73
2023/10/14 01:56:30;;;;;;;7.03;3.10;;;20.60;99.90;;;;;;5053150;28;20586;-72
2023/10/14 01:58:59;;;;;;;4.73;2.30;;;20.50;99.90;;;;;;5036641;28;20634;-72
2023/10/14 02:01:28;;;;;;;2.93;2.20;;;20.40;99.90;;;;;;5053327;28;20598;-72
2023/10/14 02:03:54;;;;;;;4.23;2.03;;;20.30;99.90;;;;;;5053141;28;21010;-72
2023/10/14 02:08:52;;;;;;;3.63;1.47;;;20.20;99.90;;;;;;5053126;28;20617;-72
2023/10/14 02:11:21;;;;;;;3.33;1.67;;;20.10;99.90;;;;;;5053004;28;20590;-72
2023/10/14 02:13:50;;;;;;;2.97;1.70;;;20.00;99.90;;;;;;5052965;28;20694;-73
2023/10/14 02:16:16;;;;;;;4.00;1.80;;;19.90;99.90;;;;;;5069251;28;20600;-73
2023/10/14 02:18:42;;;;;;;3.73;1.43;;;19.90;99.90;;;;;;5073035;28;20607;-73
2023/10/14 02:23:45;;;;;;;3.53;1.20;;;19.80;99.90;;;;;;5090767;28;20624;-72
2023/10/14 02:26:16;;;;;;;2.27;1.23;;;19.80;99.90;;;;;;5072698;28;20692;-72
2023/10/14 02:28:45;;;;;;;2.47;1.10;;;19.80;99.90;;;;;;5056136;28;20625;-73
2023/10/14 02:31:28;;;;;;;4.37;1.57;;;19.70;99.90;;;;;;5072887;28;20593;-72
2023/10/14 02:33:56;;;;;;;2.90;1.00;;;19.70;99.90;;;;;;5072479;28;20694;-73
2023/10/14 02:36:27;;;;;;;3.47;0.90;;;19.70;99.90;;;;;;5055948;28;20578;-73
2023/10/14 02:38:53;;;;;;;4.97;0.90;;;19.60;99.90;;;;;;5055529;28;20637;-72
2023/10/14 02:41:32;;;;;;;2.53;1.03;;;19.40;99.90;;;;;;5055997;28;20574;-72
2023/10/14 02:46:33;;;;;;;3.77;0.70;;;19.00;99.90;;;;;;5059285;28;20673;-72
2023/10/14 02:49:02;;;;;;;1.40;0.60;;;18.70;99.90;;;;;;5091001;28;20582;-72
2023/10/14 02:51:35;;;;;;;1.70;0.50;;;18.50;99.90;;;;;;5072698;28;20592;-73
2023/10/14 02:54:13;;;;;;;1.20;0.40;;;18.30;99.90;;;;;;5072522;28;20617;-73
2023/10/14 02:59:21;;;;;;;1.40;0.50;;;18.00;99.90;;;;;;5075642;28;20641;-72
2023/10/14 03:05:08;;;;;;;1.20;0.40;;;17.70;99.90;;;;;;5056657;28;21183;-72
2023/10/14 03:07:33;;;;;;;1.30;0.40;;;17.60;99.90;;;;;;5051077;28;20618;-72
2023/10/14 03:10:11;;;;;;;1.10;0.40;;;17.40;99.90;;;;;;5061913;28;20596;-72
2023/10/14 03:12:40;;;;;;;1.20;0.40;;;17.30;99.90;;;;;;5091973;28;20758;-72
2023/10/14 03:15:18;;;;;;;1.40;0.40;;;17.20;99.90;;;;;;5039602;28;20601;-72
2023/10/14 03:17:53;;;;;;;1.97;0.40;;;17.10;99.90;;;;;;5076190;28;20643;-72
2023/10/14 03:22:59;;;;;;;1.60;0.40;;;16.90;99.90;;;;;;5054576;28;20668;-72
2023/10/14 03:25:29;;;;;;;1.33;0.40;;;16.90;99.90;;;;;;5039320;28;20594;-71
2023/10/14 03:28:07;;;;;;;1.10;0.40;;;16.80;99.90;;;;;;5056192;28;20579;-72
2023/10/14 03:30:37;;;;;;;1.63;0.40;;;16.80;99.90;;;;;;5056128;28;20700;-72
2023/10/14 03:33:09;;;;;;;1.10;0.40;;;16.70;99.90;;;;;;5038877;28;20637;-72
2023/10/14 03:35:35;;;;;;;1.60;0.40;;;16.70;99.90;;;;;;5055734;28;20587;-72
2023/10/14 03:38:07;;;;;;;1.20;0.40;;;16.70;99.90;;;;;;5061248;28;20585;-72
2023/10/14 03:40:51;;;;;;;1.33;0.40;;;16.70;99.90;;;;;;5075956;28;20732;-72
2023/10/14 03:43:18;;;;;;;1.57;0.40;;;16.60;99.90;;;;;;5075772;28;20674;-72
2023/10/14 03:46:30;;;;;;;1.40;0.50;;;16.60;99.90;;;;;;5075684;28;20588;-72
2023/10/14 03:48:37;;;;;;;1.63;0.40;;;16.60;99.90;;;;;;5057343;28;20709;-72
2023/10/14 03:51:03;;;;;;;1.87;0.47;;;16.60;99.90;;;;;;5055760;28;20579;-72
2023/10/14 03:53:32;;;;;;;2.47;0.50;;;16.50;99.90;;;;;;5073267;28;20799;-72
2023/10/14 03:56:00;;;;;;;2.17;0.60;;;16.50;99.90;;;;;;5055396;28;20574;-73
2023/10/14 03:58:30;;;;;;;2.30;0.70;;;16.40;99.90;;;;;;5058021;28;21115;-72
2023/10/14 04:00:59;;;;;;;2.30;0.60;;;16.30;99.90;;;;;;5073439;28;20952;-72
2023/10/14 04:03:39;;;;;;;2.33;0.50;;;16.10;99.90;;;;;;5075078;28;20933;-72
2023/10/14 04:06:08;;;;;;;1.87;0.70;;;16.10;99.90;;;;;;5072997;28;20703;-72
2023/10/14 04:08:40;;;;;;;3.30;0.70;;;16.00;99.90;;;;;;5055410;28;20686;-72
2023/10/14 04:11:15;;;;;;;5.90;0.93;;;15.90;99.90;;;;;;5054777;28;20586;-72
2023/10/14 04:14:08;;;;;;;6.33;1.50;;;15.80;99.90;;;;;;5072922;28;20626;-72
2023/10/14 04:19:42;;;;;;;4.30;0.90;;;15.50;99.90;;;;;;5055261;28;20633;-72
2023/10/14 04:22:27;;;;;;;3.03;0.90;;;15.40;99.90;;;;;;5087490;28;20672;-72
2023/10/14 04:25:07;;;;;;;4.13;1.20;;;15.20;99.90;;;;;;5093167;28;20577;-72
2023/10/14 04:27:45;;;;;;;7.60;1.10;;;15.10;99.90;;;;;;5075010;28;20592;-73
2023/10/14 04:30:12;;;;;;;4.80;1.40;;;15.00;99.90;;;;;;5093174;28;20593;-73
2023/10/14 04:33:04;;;;;;;4.20;1.10;;;14.90;99.90;;;;;;5074564;28;20719;-72
2023/10/14 04:35:36;;;;;;;6.43;1.10;;;14.90;99.90;;;;;;5054991;28;20595;-72
2023/10/14 04:38:12;;;;;;;7.53;1.27;;;14.80;99.90;;;;;;5093026;28;20941;-72
2023/10/14 04:40:38;;;;;;;5.00;1.10;;;14.80;99.90;;;;;;5092984;28;20987;-72
2023/10/14 04:45:52;;;;;;;7.53;1.20;;;14.80;99.90;;;;;;5074483;28;20187;-72
2023/10/14 04:48:26;;;;;;;6.23;1.40;;;14.70;99.90;;;;;;5067210;28;20591;-72
2023/10/14 04:50:57;;;;;;;6.03;1.10;;;14.70;99.90;;;;;;5084540;28;20615;-73
2023/10/14 04:53:27;;;;;;;6.43;1.02;;;14.70;99.90;;;;;;5091715;28;20601;-73
2023/10/14 04:55:53;;;;;;;6.23;1.10;;;14.70;99.90;;;;;;5072012;28;20635;-73
2023/10/14 04:58:32;;;;;;;6.40;1.50;;;14.70;99.90;;;;;;5076908;28;20601;-73
2023/10/14 05:01:03;;;;;;;4.63;1.10;;;14.80;99.90;;;;;;5092333;28;20676;-72
2023/10/14 05:03:29;;;;;;;3.50;1.00;;;14.70;99.90;;;;;;5073630;28;20621;-72
2023/10/14 05:06:14;;;;;;;3.80;1.00;;;14.70;99.90;;;;;;5074063;28;20582;-73
2023/10/14 05:08:44;;;;;;;5.90;1.10;;;14.70;99.90;;;;;;5064079;28;20582;-73
2023/10/14 05:11:13;;;;;;;4.70;1.20;;;14.80;99.90;;;;;;5054116;28;20621;-73
2023/10/14 05:16:26;;;;;;;6.30;1.17;;;14.80;99.90;;;;;;5071685;28;21363;-73
2023/10/14 05:18:59;;;;;;;7.57;1.50;;;14.80;99.90;;;;;;5071705;28;20589;-73
2023/10/14 05:21:36;;;;;;;5.87;1.10;;;14.80;99.90;;;;;;5066919;28;20640;-73
2023/10/14 05:24:06;;;;;;;7.40;1.10;;;14.80;99.90;;;;;;5073814;28;20602;-72
2023/10/14 05:26:35;;;;;;;8.00;1.30;;;14.80;99.90;;;;;;5073365;28;20588;-72
2023/10/14 05:29:11;;;;;;;2.73;1.00;;;14.80;99.90;;;;;;5074241;28;20600;-77
2023/10/14 05:31:37;;;;;;;4.43;1.10;;;14.80;99.90;;;;;;5073973;28;20589;-77
2023/10/14 05:34:04;;;;;;;8.30;2.33;;;14.80;99.90;;;;;;5073649;28;20691;-77
2023/10/14 05:36:32;;;;;;;3.50;0.83;;;14.80;99.90;;;;;;5091349;28;20596;-76
2023/10/14 05:38:57;;;;;;;6.93;1.43;;;14.80;99.90;;;;;;5091531;28;20972;-77
2023/10/14 05:41:23;;;;;;;5.73;1.20;;;14.80;99.90;;;;;;5057459;28;20606;-77
2023/10/14 05:43:51;;;;;;;5.77;1.27;;;14.70;99.90;;;;;;5090836;28;20195;-76
2023/10/14 05:46:17;;;;;;;4.80;1.10;;;14.70;99.90;;;;;;5072904;28;20562;-76
2023/10/14 05:48:42;;;;;;;5.03;1.10;;;14.60;99.90;;;;;;5062874;28;20690;-76
2023/10/14 05:51:08;;;;;;;6.83;1.30;;;14.60;99.90;;;;;;5071178;28;20168;-76
2023/10/14 05:53:34;;;;;;;5.20;0.97;;;14.50;99.90;;;;;;5071066;28;20196;-76
2023/10/14 05:56:09;;;;;;;4.27;1.40;;;14.50;99.90;;;;;;5052943;28;20552;-77
2023/10/14 05:58:37;;;;;;;6.70;1.40;;;14.40;99.90;;;;;;5053176;28;20208;-76
2023/10/14 06:01:10;;;;;;;4.00;1.10;;;14.40;99.90;;;;;;5053241;28;20605;-77
2023/10/14 06:03:41;;;;;;;4.13;1.07;;;14.30;99.90;;;;;;5053020;28;20726;-77
2023/10/14 06:06:10;;;;;;;4.10;1.20;;;14.30;99.90;;;;;;5066240;28;20605;-76
2023/10/14 06:08:39;;;;;;;4.43;1.30;;;14.30;99.90;;;;;;5073248;28;20604;-77
2023/10/14 06:11:05;;;;;;;5.70;1.00;;;14.20;99.90;;;;;;5069395;28;20589;-77
2023/10/14 06:13:35;;;;;;;6.30;1.20;;;14.20;99.90;;;;;;5067271;28;20622;-76
2023/10/14 06:16:07;;;;;;;6.80;1.93;;;14.20;99.90;;;;;;5069478;28;20605;-76
2023/10/14 06:18:32;;;;;;;5.57;1.55;;;14.20;99.90;;;;;;5069910;28;20654;-76
2023/10/14 06:20:59;;;;;;;6.10;2.00;;;14.10;99.90;;;;;;5088948;28;20199;-76
2023/10/14 06:23:28;;;;;;;9.40;1.63;;;14.20;99.90;;;;;;5083639;28;20190;-76
2023/10/14 06:25:57;;;;;;;6.90;1.20;;;14.20;99.90;;;;;;5088596;28;20592;-76
2023/10/14 06:28:23;;;;;;;7.37;1.43;;;14.20;99.90;;;;;;5072835;28;20582;-76
2023/10/14 06:30:48;;;;;;;8.30;1.83;;;14.20;99.90;;;;;;5090643;28;21007;-76
2023/10/14 06:33:14;;;;;;;7.40;1.50;;;14.20;99.90;;;;;;5081213;28;20728;-76
2023/10/14 06:35:43;;;;;;;8.10;1.50;;;14.20;99.90;;;;;;5087783;28;20627;-76
2023/10/14 06:38:20;;;;;;;3.97;1.63;;;14.30;99.90;;;;;;5073074;28;20957;-76
2023/10/14 06:40:52;;;;;;;5.63;2.13;;;14.40;99.90;;;;;;5065215;28;20647;-77
2023/10/14 06:43:19;;;;;;;4.33;1.27;;;14.50;99.90;;;;;;5071798;28;20613;-77
2023/10/14 06:45:46;;;;;;;6.03;1.40;;;14.50;99.90;;;;;;5081587;28;20935;-77
2023/10/14 06:48:12;;;;;;;5.23;1.30;;;14.50;99.90;;;;;;5087194;28;20588;-76
2023/10/14 06:50:41;;;;;;;8.20;1.20;;;14.50;99.90;;;;;;5090355;28;20663;-77
2023/10/14 06:53:11;;;;;;;5.60;1.30;;;14.50;99.90;;;;;;5059442;28;20757;-77
2023/10/14 06:55:40;;;;;;;4.30;1.40;;;14.60;99.90;;;;;;5052893;28;20965;-77
2023/10/14 06:58:11;;;;;;;6.03;1.23;;;14.60;99.90;;;;;;5074901;28;20586;-77
2023/10/14 07:00:37;;;;;;;8.43;1.10;;;14.60;99.90;;;;;;5068999;28;20637;-76
2023/10/14 07:03:07;;;;;;;7.00;1.07;;;14.70;99.90;;;;;;5068909;28;20624;-77
2023/10/14 07:05:56;;;;;;;6.87;1.50;;;14.70;99.90;;;;;;5085550;28;20610;-77
2023/10/14 07:08:29;;;;;;;6.57;1.50;;;14.70;99.90;;;;;;5072353;28;20608;-77
2023/10/14 07:10:55;;;;;;;16.57;2.10;;;14.80;99.90;;;;;;5070580;28;20951;-77
2023/10/14 07:13:22;;;;;;;5.67;1.20;;;14.80;99.90;;;;;;5070199;28;20594;-76
2023/10/14 07:15:49;;;;;;;5.27;1.30;;;14.80;99.90;;;;;;5090462;28;20578;-76
2023/10/14 07:18:22;;;;;;;4.97;1.70;;;14.80;99.90;;;;;;5072817;28;20598;-76
2023/10/14 07:21:02;;;;;;;5.63;1.57;;;14.80;99.90;;;;;;5086812;28;20633;-76
2023/10/14 07:23:29;;;;;;;10.23;1.20;;;14.80;99.90;;;;;;5066226;28;20615;-76
2023/10/14 07:25:57;;;;;;;4.87;1.27;;;14.80;99.90;;;;;;5045350;28;20830;-76
2023/10/14 07:28:23;;;;;;;8.37;1.30;;;14.90;99.90;;;;;;5057725;28;20610;-76
2023/10/14 07:30:49;;;;;;;5.23;1.40;;;14.90;99.90;;;;;;5072500;28;20591;-76
2023/10/14 07:33:17;;;;;;;8.53;1.30;;;14.90;99.90;;;;;;5068868;28;20729;-77
2023/10/14 07:35:43;;;;;;;6.10;1.27;;;15.00;99.90;;;;;;5072129;28;20896;-76
2023/10/14 07:38:10;;;;;;;4.10;1.20;;;15.00;99.90;;;;;;5090729;28;20578;-76
2023/10/14 07:40:37;;;;;;;5.73;1.20;;;15.00;99.90;;;;;;5090461;28;20668;-76
2023/10/14 07:43:05;;;;;;;4.97;1.67;;;15.10;99.90;;;;;;5072467;28;20613;-77
2023/10/14 07:45:42;;;;;;;2.97;1.53;;;15.20;99.90;;;;;;5072999;28;20673;-76
2023/10/14 07:48:09;;;;;;;4.30;1.90;;;15.20;99.90;;;;;;5080611;28;20994;-76
2023/10/14 07:50:42;;;;;;;6.80;1.33;;;15.30;99.90;;;;;;5069476;28;20942;-76
2023/10/14 07:53:12;;;;;;;5.20;1.57;;;15.40;99.90;;;;;;5073790;28;20609;-76
2023/10/14 07:55:49;;;;;;;5.30;1.10;;;15.50;99.90;;;;;;5059354;28;20646;-77
2023/10/14 07:58:18;;;;;;;7.03;1.10;;;15.60;99.90;;;;;;5062553;28;20944;-73
2023/10/14 08:00:49;;;;;;;4.63;1.57;;;15.60;99.90;;;;;;5074727;28;20669;-74
2023/10/14 08:03:26;;;;;;;6.70;1.20;;;15.90;99.90;;;;;;5055581;28;20638;-75
2023/10/14 08:05:55;;;;;;;9.37;1.80;;;16.30;99.90;;;;;;5073203;28;20621;-75
2023/10/14 08:08:22;;;;;;;6.43;1.20;;;16.90;99.90;;;;;;5073345;28;20578;-74
2023/10/14 08:10:51;;;;;;;6.00;1.57;;;17.60;99.90;;;;;;5055461;28;20581;-74
2023/10/14 08:13:21;;;;;;;4.97;1.10;;;18.40;99.90;;;;;;5073371;28;20613;-75
2023/10/14 08:15:51;;;;;;;8.53;1.20;;;19.10;99.90;;;;;;5073477;28;20586;-76
2023/10/14 08:18:19;;;;;;;7.17;1.20;;;19.70;99.90;;;;;;5082562;28;20585;-75
2023/10/14 08:20:45;;;;;;;8.83;1.30;;;20.40;99.90;;;;;;5087167;28;20991;-77
2023/10/14 08:23:12;;;;;;;4.83;0.90;;;20.90;99.90;;;;;;5093779;28;20601;-77
2023/10/14 08:25:42;;;;;;;3.17;1.10;;;21.50;99.90;;;;;;5050162;28;20587;-73
2023/10/14 08:28:09;;;;;;;13.00;1.40;;;22.10;99.90;;;;;;5084603;28;20578;-73
2023/10/14 08:30:45;;;;;;;9.70;2.40;;;22.80;99.90;;;;;;5092286;28;20582;-74
2023/10/14 08:33:15;;;;;;;6.70;1.27;;;23.10;99.90;;;;;;5092817;28;20625;-74
2023/10/14 08:35:44;;;;;;;3.70;1.00;;;23.40;99.90;;;;;;5092874;28;20948;-74
2023/10/14 08:38:12;;;;;;;5.53;1.63;;;23.80;99.90;;;;;;5076012;28;20951;-74
2023/10/14 08:40:43;;;;;;;5.78;1.63;;;24.20;99.90;;;;;;5091908;28;20745;-74
2023/10/14 08:43:16;;;;;;;4.50;1.27;;;24.10;99.90;;;;;;5066973;28;20184;-74
2023/10/14 08:45:47;;;;;;;10.30;1.60;;;24.40;99.90;;;;;;5092550;28;20574;-75
2023/10/14 08:48:15;;;;;;;6.20;1.77;;;24.80;99.90;;;;;;5073378;28;20706;-74
2023/10/14 08:50:42;;;;;;;5.50;1.20;;;24.80;99.90;;;;;;5073289;28;20175;-74
2023/10/14 08:53:10;;;;;;;7.53;1.40;;;25.30;99.90;;;;;;5079010;28;21009;-75
2023/10/14 08:55:38;;;;;;;5.13;1.58;;;25.50;99.90;;;;;;5092037;28;20745;-74
2023/10/14 08:58:06;;;;;;;6.05;1.55;;;25.10;99.90;;;;;;5092348;28;20834;-75
2023/10/14 09:00:37;;;;;;;5.33;1.40;;;25.00;99.90;;;;;;5057802;28;20638;-74
2023/10/14 09:03:09;;;;;;;6.17;1.20;;;24.90;99.90;;;;;;5073822;28;20609;-74
2023/10/14 09:05:44;;;;;;;5.50;1.55;;;24.70;99.90;;;;;;5091394;28;21060;-73
2023/10/14 09:08:19;;;;;;;8.80;1.90;;;24.20;98.70;;;;;;5074410;28;20177;-74
2023/10/14 09:10:45;;;;;;;3.23;0.97;;;24.10;99.90;;;;;;5057594;28;20609;-74
2023/10/14 09:13:13;;;;;;;5.50;1.20;;;23.80;99.90;;;;;;5092104;28;20746;-74
2023/10/14 09:15:41;;;;;;;5.33;1.10;;;23.70;99.90;;;;;;5073194;28;20584;-74
2023/10/14 09:18:21;;;;;;;5.18;1.50;;;23.50;99.90;;;;;;5091316;28;21054;-74
2023/10/14 09:20:54;;;;;;;5.17;1.60;;;23.20;99.10;;;;;;5073882;28;20286;-72
2023/10/14 09:23:30;;;;;;;4.57;1.17;;;23.10;99.90;;;;;;5091966;28;21001;-73
2023/10/14 09:25:58;;;;;;;5.93;1.10;;;23.10;99.90;;;;;;5091664;28;20577;-72
2023/10/14 09:28:35;;;;;;;7.10;1.30;;;23.00;99.90;;;;;;5073865;28;21072;-73
2023/10/14 09:31:08;;;;;;;9.00;2.03;;;22.90;99.90;;;;;;5072886;28;20710;-73
2023/10/14 09:33:37;;;;;;;6.20;1.30;;;22.60;98.90;;;;;;5072987;28;20816;-73
2023/10/14 09:36:05;;;;;;;3.87;1.40;;;22.60;99.20;;;;;;5090056;28;20259;-73
2023/10/14 09:38:32;;;;;;;13.80;1.30;;;22.70;99.80;;;;;;5072703;28;20651;-72
2023/10/14 09:41:03;;;;;;;6.68;1.33;;;22.60;99.90;;;;;;5091432;28;20780;-72
2023/10/14 09:43:33;;;;;;;4.07;1.13;;;22.30;98.80;;;;;;5090364;28;20821;-73
2023/10/14 09:46:03;;;;;;;6.57;1.23;;;22.10;99.30;;;;;;5057124;28;20202;-72
2023/10/14 09:48:31;;;;;;;5.97;1.10;;;22.00;99.90;;;;;;5095141;28;20683;-73
2023/10/14 09:51:00;;;;;;;9.57;1.43;;;22.00;99.90;;;;;;5077813;28;20900;-72
2023/10/14 09:53:28;;;;;;;6.53;1.40;;;22.00;99.90;;;;;;5071142;28;20618;-75
2023/10/14 09:56:05;;;;;;;5.90;2.30;;;22.20;99.90;;;;;;5068835;28;20602;-72
2023/10/14 09:58:36;;;;;;;4.73;1.20;;;22.40;99.90;;;;;;5053602;28;20618;-72
2023/10/14 10:01:04;;;;;;;6.93;1.13;;;22.50;99.90;;;;;;5071032;28;20634;-73
2023/10/14 10:03:35;;;;;;;2.63;0.90;;;22.50;99.90;;;;;;5073864;28;20610;-72
2023/10/14 10:06:47;;;;;;;5.47;1.40;;;22.60;99.90;;;;;;5073307;28;20618;-73
2023/10/14 10:09:22;;;;;;;4.70;1.23;;;22.50;99.90;;;;;;5070031;28;21130;-73
2023/10/14 10:11:53;;;;;;;5.47;1.20;;;22.30;98.50;;;;;;5070851;28;20582;-72
2023/10/14 10:14:25;;;;;;;6.65;1.73;;;22.30;99.30;;;;;;5070665;28;20815;-72
2023/10/14 10:16:52;;;;;;;6.60;1.53;;;22.20;97.80;;;;;;5052745;28;20186;-73
2023/10/14 10:19:21;;;;;;;5.43;1.80;;;22.50;99.90;;;;;;5052058;28;20908;-74
2023/10/14 10:22:13;;;;;;;8.00;2.40;;;22.70;97.40;;;;;;5076941;28;20622;-73
2023/10/14 10:24:46;;;;;;;6.85;1.80;;;23.10;98.80;;;;;;5073037;28;20732;-74
2023/10/14 10:27:12;;;;;;;5.70;1.40;;;23.40;96.80;;;;;;5070688;28;20706;-72
2023/10/14 10:29:50;;;;;;;4.73;1.30;;;23.30;93.00;;;;;;5072855;28;20210;-72
2023/10/14 10:32:21;;;;;;;5.80;1.27;;;23.40;94.90;;;;;;5065228;28;21154;-72
2023/10/14 10:35:05;;;;;;;5.30;1.30;;;23.50;95.40;;;;;;5090929;28;20574;-74
2023/10/14 10:37:34;;;;;;;4.00;0.90;;;23.60;95.10;;;;;;5076439;28;20952;-74
2023/10/14 10:40:05;;;;;;;8.45;1.52;;;24.00;96.00;;;;;;5073006;28;21083;-75
2023/10/14 10:42:31;;;;;;;5.00;1.03;;;24.30;94.20;;;;;;5089493;28;20538;-73
2023/10/14 10:45:00;;;;;;;5.33;1.60;;;24.50;96.50;;;;;;5070068;28;20790;-76
2023/10/14 10:47:29;;;;;;;3.70;1.37;;;24.70;90.70;;;;;;5066436;28;20582;-76
2023/10/14 10:50:02;;;;;;;4.87;1.40;;;24.90;93.50;;;;;;5090772;28;20631;-76
2023/10/14 10:52:28;;;;;;;3.87;1.77;;;25.00;93.30;;;;;;5058916;28;20583;-76
2023/10/14 10:54:56;;;;;;;3.90;1.33;;;25.10;93.00;;;;;;5081462;28;20581;-76
2023/10/14 10:57:21;;;;;;;5.33;1.40;;;24.90;91.40;;;;;;5052773;28;20181;-76
2023/10/14 10:59:47;;;;;;;3.87;1.30;;;24.50;91.00;;;;;;5052868;28;20692;-77
2023/10/14 11:02:15;;;;;;;3.50;1.00;;;24.20;91.00;;;;;;5070839;28;20172;-76
2023/10/14 11:04:43;;;;;;;8.57;1.30;;;23.90;90.10;;;;;;5036292;28;20265;-76
2023/10/14 11:07:14;;;;;;;4.40;1.20;;;23.60;89.30;;;;;;5052333;28;20569;-76
2023/10/14 11:09:40;;;;;;;3.50;1.20;;;23.20;89.90;;;;;;5037277;28;20618;-77
2023/10/14 11:12:10;;;;;;;6.18;1.20;;;23.00;90.30;;;;;;5074955;28;20707;-77
2023/10/14 11:14:36;;;;;;;5.13;1.70;;;22.30;85.40;;;;;;5090468;28;20710;-75
2023/10/14 11:17:02;;;;;;;4.53;1.10;;;21.60;83.20;;;;;;5072216;28;20183;-76
2023/10/14 11:19:32;;;;;;;4.10;1.20;;;21.40;85.70;;;;;;5091210;28;20670;-77
2023/10/14 11:21:59;;;;;;;5.13;1.07;;;21.10;86.10;;;;;;5077039;28;20577;-76
2023/10/14 11:24:30;;;;;;;4.80;1.33;;;20.90;87.90;;;;;;5076866;28;20791;-75
2023/10/14 11:26:57;;;;;;;7.10;1.50;;;20.70;89.50;;;;;;5088456;28;20200;-76
2023/10/14 11:29:27;;;;;;;5.27;1.60;;;20.60;90.40;;;;;;5076914;28;20586;-76
2023/10/14 11:31:59;;;;;;;4.23;1.10;;;20.50;90.60;;;;;;5076377;28;20593;-76
2023/10/14 11:34:32;;;;;;;5.97;1.10;;;20.50;91.30;;;;;;5057091;28;21215;-75
2023/10/14 11:36:58;;;;;;;4.43;1.00;;;20.70;92.60;;;;;;5068028;28;20584;-76
2023/10/14 11:39:24;;;;;;;7.63;1.50;;;20.80;93.20;;;;;;5092842;28;21166;-73
2023/10/14 11:41:50;;;;;;;6.20;1.10;;;21.10;93.50;;;;;;5094445;28;20698;-73
2023/10/14 11:44:20;;;;;;;5.80;1.73;;;21.30;93.40;;;;;;5090678;28;20602;-76
2023/10/14 11:46:46;;;;;;;3.20;1.10;;;21.60;94.20;;;;;;5063668;28;20167;-76
2023/10/14 11:49:15;;;;;;;5.53;1.23;;;21.80;94.50;;;;;;5096018;28;20596;-76
2023/10/14 11:51:42;;;;;;;7.57;1.37;;;22.20;94.80;;;;;;5077397;28;20634;-76
2023/10/14 11:54:11;;;;;;;5.20;1.50;;;22.50;94.10;;;;;;5092701;28;20700;-76
2023/10/14 11:56:38;;;;;;;3.93;1.30;;;22.60;93.50;;;;;;5086826;28;20689;-76
2023/10/14 11:59:04;;;;;;;4.13;1.00;;;22.70;93.60;;;;;;5095310;28;20580;-77
2023/10/14 12:01:34;;;;;;;8.53;1.43;;;22.80;92.90;;;;;;5077939;28;20562;-77
2023/10/14 12:04:03;;;;;;;6.37;2.00;;;22.90;92.50;;;;;;5077249;28;20561;-76
2023/10/14 12:06:30;;;;;;;6.40;1.63;;;22.90;92.20;;;;;;5057601;28;20613;-76
2023/10/14 12:08:56;;;;;;;5.53;1.17;;;23.00;91.40;;;;;;5066139;28;20585;-76
2023/10/14 12:11:23;;;;;;;4.40;1.20;;;22.90;90.90;;;;;;5077632;28;20597;-76
2023/10/14 12:13:50;;;;;;;4.30;1.20;;;22.80;90.80;;;;;;5082990;28;20622;-76
2023/10/14 12:16:17;;;;;;;6.60;1.20;;;22.80;90.70;;;;;;5090413;28;20600;-76
2023/10/14 12:18:45;;;;;;;6.70;1.10;;;22.70;90.30;;;;;;5082420;28;20566;-77
2023/10/14 12:21:11;;;;;;;4.40;1.80;;;22.60;87.90;;;;;;5097851;28;20627;-76
2023/10/14 12:23:38;;;;;;;4.70;1.43;;;22.30;84.60;;;;;;5113519;28;20601;-77
2023/10/14 12:26:04;;;;;;;3.27;1.07;;;22.00;83.50;;;;;;5111287;28;20573;-76
2023/10/14 12:28:31;;;;;;;6.30;1.20;;;21.60;83.20;;;;;;5112357;28;20648;-76
2023/10/14 12:31:09;;;;;;;5.63;1.47;;;21.30;82.70;;;;;;5089381;28;20593;-76
2023/10/14 12:33:41;;;;;;;4.47;1.40;;;21.00;82.40;;;;;;5071014;28;20633;-76
2023/10/14 12:36:11;;;;;;;4.50;1.10;;;20.60;81.40;;;;;;5075417;28;20589;-76
2023/10/14 12:38:38;;;;;;;4.67;1.17;;;20.30;82.10;;;;;;5083840;28;20582;-76
2023/10/14 12:41:07;;;;;;;4.70;1.00;;;20.10;82.10;;;;;;5057519;28;20642;-76
2023/10/14 12:43:36;;;;;;;4.50;1.50;;;19.90;81.60;;;;;;5073001;28;20611;-76
2023/10/14 12:46:22;;;;;;;3.70;1.17;;;19.70;83.30;;;;;;5059176;28;20590;-76
2023/10/14 12:48:50;;;;;;;4.93;1.20;;;19.60;83.70;;;;;;5074719;28;20614;-76
2023/10/14 12:51:18;;;;;;;3.20;1.30;;;19.50;84.70;;;;;;5093128;28;20922;-76
2023/10/14 12:53:45;;;;;;;6.57;1.17;;;19.40;84.70;;;;;;5057927;28;20608;-76
2023/10/14 12:56:20;;;;;;;4.33;1.83;;;19.20;85.10;;;;;;5099554;28;20621;-76
2023/10/14 12:58:48;;;;;;;4.40;1.00;;;19.10;85.10;;;;;;5092616;28;20604;-77
2023/10/14 13:01:22;;;;;;;3.57;1.10;;;18.90;85.70;;;;;;5074256;28;20720;-77
2023/10/14 13:03:52;;;;;;;3.73;1.20;;;18.80;86.10;;;;;;5092484;28;20993;-73
2023/10/14 13:06:24;;;;;;;4.30;1.47;;;18.70;86.90;;;;;;5074061;28;20574;-74
2023/10/14 13:08:58;;;;;;;5.67;1.30;;;18.60;87.50;;;;;;5092542;28;20585;-73
2023/10/14 13:11:25;;;;;;;3.03;0.97;;;18.60;88.20;;;;;;5057416;28;20591;-73
2023/10/14 13:13:50;;;;;;;6.70;1.03;;;18.60;88.90;;;;;;5057213;28;20613;-74
2023/10/14 13:16:18;;;;;;;7.20;2.00;;;18.50;89.10;;;;;;5070976;28;20598;-74
2023/10/14 13:18:45;;;;;;;3.87;1.30;;;18.60;89.80;;;;;;5070880;28;20237;-74
2023/10/14 13:21:21;;;;;;;4.50;1.70;;;18.60;90.20;;;;;;5073952;28;21033;-74
2023/10/14 13:23:47;;;;;;;6.07;1.90;;;18.70;90.30;;;;;;5057103;28;21262;-73
2023/10/14 13:26:15;;;;;;;9.03;2.00;;;18.70;90.40;;;;;;5038754;28;20586;-73